sensor_id;sensor_type;location;lat;lon;timestamp;P1;durP1;ratioP1;P2;durP2;ratioP2
65405;SDS011;52016;51.228;-2.322;2022-12-07T00:03:26;15.45;;;9.13;;
65405;SDS011;52016;51.228;-2.322;2022-12-07T00:07:08;14.23;;;10.13;;
65405;SDS011;52016;51.228;-2.322;2022-12-07T00:10:50;16.23;;;9.40;;
65405;SDS011;52016;51.228;-2.322;2022-12-07T00:14:32;15.13;;;10.15;;
65405;SDS011;52016;51.228;-2.322;2022-12-07T00:18:15;13.15;;;9.50;;
65405;SDS011;52016;51.228;-2.322;2022-12-07T00:21:57;15.00;;;10.07;;
65405;SDS011;52016;51.228;-2.322;2022-12-07T00:25:38;14.45;;;9.57;;
65405;SDS011;52016;51.228;-2.322;2022-12-07T00:29:21;14.25;;;10.40;;
65405;SDS011;52016;51.228;-2.322;2022-12-07T00:33:03;16.05;;;10.73;;
65405;SDS011;52016;51.228;-2.322;2022-12-07T00:36:45;16.75;;;10.32;;
65405;SDS011;52016;51.228;-2.322;2022-12-07T00:40:28;14.02;;;9.80;;
65405;SDS011;52016;51.228;-2.322;2022-12-07T00:44:10;12.32;;;10.05;;
65405;SDS011;52016;51.228;-2.322;2022-12-07T00:47:52;15.07;;;10.95;;
65405;SDS011;52016;51.228;-2.322;2022-12-07T00:51:34;16.33;;;11.18;;
65405;SDS011;52016;51.228;-2.322;2022-12-07T00:55:16;16.55;;;10.60;;
65405;SDS011;52016;51.228;-2.322;2022-12-07T00:58:59;15.57;;;10.25;;
65405;SDS011;52016;51.228;-2.322;2022-12-07T01:02:42;16.17;;;9.82;;
65405;SDS011;52016;51.228;-2.322;2022-12-07T01:06:24;14.73;;;10.20;;
65405;SDS011;52016;51.228;-2.322;2022-12-07T01:10:07;13.82;;;10.68;;
65405;SDS011;52016;51.228;-2.322;2022-12-07T01:13:50;15.32;;;10.80;;
65405;SDS011;52016;51.228;-2.322;2022-12-07T01:17:33;16.88;;;10.98;;
65405;SDS011;52016;51.228;-2.322;2022-12-07T01:21:19;14.98;;;10.75;;
65405;SDS011;52016;51.228;-2.322;2022-12-07T01:25:07;18.33;;;10.80;;
65405;SDS011;52016;51.228;-2.322;2022-12-07T01:28:50;14.18;;;10.07;;
65405;SDS011;52016;51.228;-2.322;2022-12-07T01:32:33;17.48;;;9.45;;
65405;SDS011;52016;51.228;-2.322;2022-12-07T01:36:19;21.02;;;10.27;;
65405;SDS011;52016;51.228;-2.322;2022-12-07T01:40:06;14.25;;;10.15;;
65405;SDS011;52016;51.228;-2.322;2022-12-07T01:47:55;14.00;;;9.43;;
65405;SDS011;52016;51.228;-2.322;2022-12-07T01:51:38;13.25;;;9.27;;
65405;SDS011;52016;51.228;-2.322;2022-12-07T01:55:23;14.95;;;9.45;;
65405;SDS011;52016;51.228;-2.322;2022-12-07T01:59:05;18.55;;;9.75;;
65405;SDS011;52016;51.228;-2.322;2022-12-07T02:02:48;17.30;;;10.73;;
65405;SDS011;52016;51.228;-2.322;2022-12-07T02:10:19;14.55;;;9.52;;
65405;SDS011;52016;51.228;-2.322;2022-12-07T02:14:11;15.40;;;9.90;;
65405;SDS011;52016;51.228;-2.322;2022-12-07T02:21:47;17.73;;;12.02;;
65405;SDS011;52016;51.228;-2.322;2022-12-07T02:29:39;15.68;;;11.00;;
65405;SDS011;52016;51.228;-2.322;2022-12-07T02:33:37;21.88;;;11.88;;
65405;SDS011;52016;51.228;-2.322;2022-12-07T02:37:27;17.35;;;11.40;;
65405;SDS011;52016;51.228;-2.322;2022-12-07T02:45:05;14.73;;;10.52;;
65405;SDS011;52016;51.228;-2.322;2022-12-07T02:48:49;12.30;;;9.70;;
65405;SDS011;52016;51.228;-2.322;2022-12-07T02:52:33;15.68;;;10.10;;
65405;SDS011;52016;51.228;-2.322;2022-12-07T03:00:29;16.98;;;9.77;;
65405;SDS011;52016;51.228;-2.322;2022-12-07T03:12:16;16.98;;;9.48;;
65405;SDS011;52016;51.228;-2.322;2022-12-07T03:16:08;17.98;;;10.10;;
65405;SDS011;52016;51.228;-2.322;2022-12-07T03:19:57;16.17;;;11.25;;
65405;SDS011;52016;51.228;-2.322;2022-12-07T03:23:42;18.60;;;10.27;;
65405;SDS011;52016;51.228;-2.322;2022-12-07T03:27:30;17.45;;;9.95;;
65405;SDS011;52016;51.228;-2.322;2022-12-07T03:35:12;16.20;;;10.80;;
65405;SDS011;52016;51.228;-2.322;2022-12-07T03:39:20;14.90;;;10.00;;
65405;SDS011;52016;51.228;-2.322;2022-12-07T03:43:08;12.75;;;9.48;;
65405;SDS011;52016;51.228;-2.322;2022-12-07T03:59:16;12.88;;;9.82;;
65405;SDS011;52016;51.228;-2.322;2022-12-07T04:02:59;12.98;;;10.10;;
65405;SDS011;52016;51.228;-2.322;2022-12-07T04:06:41;14.18;;;10.30;;
65405;SDS011;52016;51.228;-2.322;2022-12-07T04:10:23;14.20;;;10.13;;
65405;SDS011;52016;51.228;-2.322;2022-12-07T04:14:05;18.10;;;10.55;;
65405;SDS011;52016;51.228;-2.322;2022-12-07T04:18:02;13.93;;;9.68;;
65405;SDS011;52016;51.228;-2.322;2022-12-07T04:21:44;15.10;;;10.77;;
65405;SDS011;52016;51.228;-2.322;2022-12-07T04:25:26;13.23;;;10.20;;
65405;SDS011;52016;51.228;-2.322;2022-12-07T04:29:08;16.65;;;12.45;;
65405;SDS011;52016;51.228;-2.322;2022-12-07T04:32:50;17.20;;;11.30;;
65405;SDS011;52016;51.228;-2.322;2022-12-07T04:36:32;19.35;;;12.20;;
65405;SDS011;52016;51.228;-2.322;2022-12-07T04:40:15;18.33;;;11.05;;
65405;SDS011;52016;51.228;-2.322;2022-12-07T04:43:59;22.17;;;11.88;;
65405;SDS011;52016;51.228;-2.322;2022-12-07T04:47:42;17.50;;;11.82;;
65405;SDS011;52016;51.228;-2.322;2022-12-07T04:51:26;21.02;;;10.48;;
65405;SDS011;52016;51.228;-2.322;2022-12-07T04:55:09;17.85;;;11.27;;
65405;SDS011;52016;51.228;-2.322;2022-12-07T04:58:52;15.88;;;11.20;;
65405;SDS011;52016;51.228;-2.322;2022-12-07T05:02:35;17.73;;;9.93;;
65405;SDS011;52016;51.228;-2.322;2022-12-07T05:06:17;15.90;;;11.15;;
65405;SDS011;52016;51.228;-2.322;2022-12-07T05:09:59;19.77;;;11.30;;
65405;SDS011;52016;51.228;-2.322;2022-12-07T05:13:41;17.95;;;11.20;;
65405;SDS011;52016;51.228;-2.322;2022-12-07T05:17:23;19.42;;;10.70;;
65405;SDS011;52016;51.228;-2.322;2022-12-07T05:21:05;15.52;;;10.10;;
65405;SDS011;52016;51.228;-2.322;2022-12-07T05:24:47;16.30;;;9.85;;
65405;SDS011;52016;51.228;-2.322;2022-12-07T05:28:29;15.25;;;10.35;;
65405;SDS011;52016;51.228;-2.322;2022-12-07T05:32:11;17.85;;;10.43;;
65405;SDS011;52016;51.228;-2.322;2022-12-07T05:35:53;17.95;;;11.85;;
65405;SDS011;52016;51.228;-2.322;2022-12-07T05:39:35;20.65;;;12.32;;
65405;SDS011;52016;51.228;-2.322;2022-12-07T05:43:19;18.27;;;11.55;;
65405;SDS011;52016;51.228;-2.322;2022-12-07T05:47:01;20.13;;;11.27;;
65405;SDS011;52016;51.228;-2.322;2022-12-07T05:50:42;17.65;;;11.48;;
65405;SDS011;52016;51.228;-2.322;2022-12-07T05:54:24;18.70;;;11.48;;
65405;SDS011;52016;51.228;-2.322;2022-12-07T05:58:06;20.17;;;12.10;;
65405;SDS011;52016;51.228;-2.322;2022-12-07T06:02:11;18.08;;;12.07;;
65405;SDS011;52016;51.228;-2.322;2022-12-07T06:05:55;15.40;;;11.23;;
65405;SDS011;52016;51.228;-2.322;2022-12-07T06:09:37;17.17;;;11.07;;
65405;SDS011;52016;51.228;-2.322;2022-12-07T06:13:19;17.63;;;11.70;;
65405;SDS011;52016;51.228;-2.322;2022-12-07T06:17:01;17.70;;;11.00;;
65405;SDS011;52016;51.228;-2.322;2022-12-07T06:20:43;18.90;;;11.00;;
65405;SDS011;52016;51.228;-2.322;2022-12-07T06:24:25;19.30;;;10.95;;
65405;SDS011;52016;51.228;-2.322;2022-12-07T06:28:07;16.98;;;10.52;;
65405;SDS011;52016;51.228;-2.322;2022-12-07T06:31:49;15.90;;;10.98;;
65405;SDS011;52016;51.228;-2.322;2022-12-07T06:35:32;17.33;;;10.90;;
65405;SDS011;52016;51.228;-2.322;2022-12-07T06:39:14;16.30;;;10.70;;
65405;SDS011;52016;51.228;-2.322;2022-12-07T06:42:56;19.83;;;10.70;;
65405;SDS011;52016;51.228;-2.322;2022-12-07T06:46:38;22.40;;;16.65;;
65405;SDS011;52016;51.228;-2.322;2022-12-07T06:50:20;14.82;;;11.07;;
65405;SDS011;52016;51.228;-2.322;2022-12-07T06:54:03;26.85;;;13.95;;
65405;SDS011;52016;51.228;-2.322;2022-12-07T06:57:45;19.50;;;12.88;;
65405;SDS011;52016;51.228;-2.322;2022-12-07T07:01:27;18.98;;;11.88;;
65405;SDS011;52016;51.228;-2.322;2022-12-07T07:05:09;21.67;;;11.52;;
65405;SDS011;52016;51.228;-2.322;2022-12-07T07:08:51;19.92;;;12.35;;
65405;SDS011;52016;51.228;-2.322;2022-12-07T07:12:34;17.30;;;12.23;;
65405;SDS011;52016;51.228;-2.322;2022-12-07T07:16:16;17.65;;;12.15;;
65405;SDS011;52016;51.228;-2.322;2022-12-07T07:19:58;22.00;;;11.35;;
65405;SDS011;52016;51.228;-2.322;2022-12-07T07:23:40;19.58;;;12.05;;
65405;SDS011;52016;51.228;-2.322;2022-12-07T07:27:22;22.92;;;11.75;;
65405;SDS011;52016;51.228;-2.322;2022-12-07T07:31:04;20.17;;;12.13;;
65405;SDS011;52016;51.228;-2.322;2022-12-07T07:34:46;18.33;;;11.30;;
65405;SDS011;52016;51.228;-2.322;2022-12-07T07:38:29;17.02;;;10.52;;
65405;SDS011;52016;51.228;-2.322;2022-12-07T07:42:10;19.27;;;11.30;;
65405;SDS011;52016;51.228;-2.322;2022-12-07T07:45:52;15.90;;;11.23;;
65405;SDS011;52016;51.228;-2.322;2022-12-07T07:49:35;23.60;;;10.77;;
65405;SDS011;52016;51.228;-2.322;2022-12-07T07:53:17;20.27;;;11.23;;
65405;SDS011;52016;51.228;-2.322;2022-12-07T07:56:59;22.00;;;12.85;;
65405;SDS011;52016;51.228;-2.322;2022-12-07T08:00:41;19.35;;;12.20;;
65405;SDS011;52016;51.228;-2.322;2022-12-07T08:04:23;21.25;;;12.00;;
65405;SDS011;52016;51.228;-2.322;2022-12-07T08:08:05;42.08;;;21.88;;
65405;SDS011;52016;51.228;-2.322;2022-12-07T08:11:47;22.42;;;13.63;;
65405;SDS011;52016;51.228;-2.322;2022-12-07T08:15:29;20.70;;;12.82;;
65405;SDS011;52016;51.228;-2.322;2022-12-07T08:19:12;22.20;;;13.82;;
65405;SDS011;52016;51.228;-2.322;2022-12-07T08:22:54;25.00;;;14.05;;
65405;SDS011;52016;51.228;-2.322;2022-12-07T08:26:36;24.13;;;14.18;;
65405;SDS011;52016;51.228;-2.322;2022-12-07T08:30:18;27.45;;;14.48;;
65405;SDS011;52016;51.228;-2.322;2022-12-07T08:34:01;29.63;;;14.98;;
65405;SDS011;52016;51.228;-2.322;2022-12-07T08:37:43;23.23;;;13.95;;
65405;SDS011;52016;51.228;-2.322;2022-12-07T08:41:26;18.17;;;12.43;;
65405;SDS011;52016;51.228;-2.322;2022-12-07T08:45:11;18.33;;;10.65;;
65405;SDS011;52016;51.228;-2.322;2022-12-07T08:48:55;22.30;;;11.35;;
65405;SDS011;52016;51.228;-2.322;2022-12-07T08:52:43;17.48;;;10.25;;
65405;SDS011;52016;51.228;-2.322;2022-12-07T08:56:25;13.55;;;10.38;;
65405;SDS011;52016;51.228;-2.322;2022-12-07T09:00:08;16.50;;;10.50;;
65405;SDS011;52016;51.228;-2.322;2022-12-07T09:03:50;25.08;;;16.83;;
65405;SDS011;52016;51.228;-2.322;2022-12-07T09:07:32;15.68;;;10.02;;
65405;SDS011;52016;51.228;-2.322;2022-12-07T09:11:15;15.00;;;9.82;;
65405;SDS011;52016;51.228;-2.322;2022-12-07T09:14:57;14.13;;;9.30;;
65405;SDS011;52016;51.228;-2.322;2022-12-07T09:18:41;16.77;;;9.23;;
65405;SDS011;52016;51.228;-2.322;2022-12-07T09:22:23;15.70;;;9.13;;
65405;SDS011;52016;51.228;-2.322;2022-12-07T09:26:05;13.45;;;8.85;;
65405;SDS011;52016;51.228;-2.322;2022-12-07T09:29:51;15.95;;;8.23;;
65405;SDS011;52016;51.228;-2.322;2022-12-07T09:33:33;16.15;;;9.23;;
65405;SDS011;52016;51.228;-2.322;2022-12-07T09:37:15;20.27;;;11.90;;
65405;SDS011;52016;51.228;-2.322;2022-12-07T09:40:57;21.65;;;12.82;;
65405;SDS011;52016;51.228;-2.322;2022-12-07T09:44:39;18.58;;;12.75;;
65405;SDS011;52016;51.228;-2.322;2022-12-07T09:48:32;16.55;;;11.90;;
65405;SDS011;52016;51.228;-2.322;2022-12-07T09:52:19;17.95;;;11.38;;
65405;SDS011;52016;51.228;-2.322;2022-12-07T09:56:08;24.52;;;13.93;;
65405;SDS011;52016;51.228;-2.322;2022-12-07T09:59:55;25.13;;;16.40;;
65405;SDS011;52016;51.228;-2.322;2022-12-07T10:04:16;18.65;;;13.95;;
65405;SDS011;52016;51.228;-2.322;2022-12-07T10:07:51;29.35;;;13.05;;
65405;SDS011;52016;51.228;-2.322;2022-12-07T10:11:34;16.75;;;12.00;;
65405;SDS011;52016;51.228;-2.322;2022-12-07T10:15:16;18.58;;;11.88;;
65405;SDS011;52016;51.228;-2.322;2022-12-07T10:19:01;22.45;;;12.07;;
65405;SDS011;52016;51.228;-2.322;2022-12-07T10:23:13;19.23;;;9.88;;
65405;SDS011;52016;51.228;-2.322;2022-12-07T10:26:57;14.70;;;9.07;;
65405;SDS011;52016;51.228;-2.322;2022-12-07T10:30:49;21.33;;;9.00;;
65405;SDS011;52016;51.228;-2.322;2022-12-07T10:34:36;15.80;;;8.52;;
65405;SDS011;52016;51.228;-2.322;2022-12-07T10:38:24;17.48;;;7.97;;
65405;SDS011;52016;51.228;-2.322;2022-12-07T10:42:15;17.58;;;7.18;;
65405;SDS011;52016;51.228;-2.322;2022-12-07T10:50:08;13.75;;;6.50;;
65405;SDS011;52016;51.228;-2.322;2022-12-07T10:58:00;13.80;;;6.63;;
65405;SDS011;52016;51.228;-2.322;2022-12-07T11:06:27;13.63;;;5.70;;
65405;SDS011;52016;51.228;-2.322;2022-12-07T11:14:31;13.55;;;5.60;;
65405;SDS011;52016;51.228;-2.322;2022-12-07T11:37:51;8.52;;;4.45;;
65405;SDS011;52016;51.228;-2.322;2022-12-07T11:41:40;9.88;;;4.72;;
65405;SDS011;52016;51.228;-2.322;2022-12-07T11:45:25;11.60;;;4.88;;
65405;SDS011;52016;51.228;-2.322;2022-12-07T11:49:13;9.30;;;4.90;;
65405;SDS011;52016;51.228;-2.322;2022-12-07T11:56:50;6.95;;;4.70;;
65405;SDS011;52016;51.228;-2.322;2022-12-07T12:00:35;7.47;;;4.90;;
65405;SDS011;52016;51.228;-2.322;2022-12-07T12:05:03;13.07;;;5.50;;
65405;SDS011;52016;51.228;-2.322;2022-12-07T12:08:43;10.75;;;4.40;;
65405;SDS011;52016;51.228;-2.322;2022-12-07T12:20:46;12.13;;;3.90;;
65405;SDS011;52016;51.228;-2.322;2022-12-07T12:24:33;8.15;;;3.92;;
65405;SDS011;52016;51.228;-2.322;2022-12-07T12:43:57;12.43;;;4.68;;
65405;SDS011;52016;51.228;-2.322;2022-12-07T12:47:40;11.30;;;4.55;;
65405;SDS011;52016;51.228;-2.322;2022-12-07T12:51:35;10.07;;;4.40;;
65405;SDS011;52016;51.228;-2.322;2022-12-07T12:55:26;8.10;;;4.90;;
65405;SDS011;52016;51.228;-2.322;2022-12-07T12:59:33;11.57;;;5.95;;
65405;SDS011;52016;51.228;-2.322;2022-12-07T13:03:27;12.32;;;6.25;;
65405;SDS011;52016;51.228;-2.322;2022-12-07T13:07:13;13.30;;;6.55;;
65405;SDS011;52016;51.228;-2.322;2022-12-07T13:11:29;14.90;;;6.28;;
65405;SDS011;52016;51.228;-2.322;2022-12-07T13:23:23;21.77;;;6.43;;
65405;SDS011;52016;51.228;-2.322;2022-12-07T13:27:18;22.92;;;7.65;;
65405;SDS011;52016;51.228;-2.322;2022-12-07T13:31:04;16.33;;;6.07;;
65405;SDS011;52016;51.228;-2.322;2022-12-07T13:34:56;33.45;;;5.88;;
65405;SDS011;52016;51.228;-2.322;2022-12-07T13:38:38;18.30;;;4.95;;
65405;SDS011;52016;51.228;-2.322;2022-12-07T13:42:30;17.52;;;5.10;;
65405;SDS011;52016;51.228;-2.322;2022-12-07T13:46:14;11.98;;;4.28;;
65405;SDS011;52016;51.228;-2.322;2022-12-07T13:49:59;14.55;;;4.20;;
65405;SDS011;52016;51.228;-2.322;2022-12-07T13:54:08;9.63;;;3.85;;
65405;SDS011;52016;51.228;-2.322;2022-12-07T13:57:52;11.77;;;4.60;;
65405;SDS011;52016;51.228;-2.322;2022-12-07T14:01:36;14.07;;;4.40;;
65405;SDS011;52016;51.228;-2.322;2022-12-07T14:05:25;15.90;;;4.35;;
65405;SDS011;52016;51.228;-2.322;2022-12-07T14:09:19;16.00;;;4.15;;
65405;SDS011;52016;51.228;-2.322;2022-12-07T14:17:21;17.98;;;4.72;;
65405;SDS011;52016;51.228;-2.322;2022-12-07T14:21:14;11.50;;;4.18;;
65405;SDS011;52016;51.228;-2.322;2022-12-07T14:25:00;18.63;;;4.53;;
65405;SDS011;52016;51.228;-2.322;2022-12-07T14:33:09;9.95;;;4.00;;
65405;SDS011;52016;51.228;-2.322;2022-12-07T14:36:51;8.85;;;4.15;;
65405;SDS011;52016;51.228;-2.322;2022-12-07T14:40:33;26.67;;;5.28;;
65405;SDS011;52016;51.228;-2.322;2022-12-07T14:44:16;12.40;;;5.43;;
65405;SDS011;52016;51.228;-2.322;2022-12-07T14:48:11;8.23;;;3.78;;
65405;SDS011;52016;51.228;-2.322;2022-12-07T14:52:16;18.02;;;4.40;;
65405;SDS011;52016;51.228;-2.322;2022-12-07T14:56:21;17.17;;;5.20;;
65405;SDS011;52016;51.228;-2.322;2022-12-07T15:00:03;15.20;;;5.10;;
65405;SDS011;52016;51.228;-2.322;2022-12-07T15:03:46;12.13;;;4.50;;
65405;SDS011;52016;51.228;-2.322;2022-12-07T15:07:28;13.27;;;4.28;;
65405;SDS011;52016;51.228;-2.322;2022-12-07T15:11:14;8.65;;;4.22;;
65405;SDS011;52016;51.228;-2.322;2022-12-07T15:14:57;27.20;;;6.65;;
65405;SDS011;52016;51.228;-2.322;2022-12-07T15:18:39;10.85;;;5.65;;
65405;SDS011;52016;51.228;-2.322;2022-12-07T15:22:38;11.65;;;6.50;;
65405;SDS011;52016;51.228;-2.322;2022-12-07T15:26:20;16.88;;;6.65;;
65405;SDS011;52016;51.228;-2.322;2022-12-07T15:30:02;18.60;;;6.30;;
65405;SDS011;52016;51.228;-2.322;2022-12-07T15:33:45;12.38;;;6.20;;
65405;SDS011;52016;51.228;-2.322;2022-12-07T15:37:27;11.63;;;6.65;;
65405;SDS011;52016;51.228;-2.322;2022-12-07T15:41:09;14.15;;;6.03;;
65405;SDS011;52016;51.228;-2.322;2022-12-07T15:44:51;14.23;;;6.35;;
65405;SDS011;52016;51.228;-2.322;2022-12-07T15:48:46;11.50;;;5.80;;
65405;SDS011;52016;51.228;-2.322;2022-12-07T15:52:28;13.05;;;4.70;;
65405;SDS011;52016;51.228;-2.322;2022-12-07T15:56:10;10.75;;;5.70;;
65405;SDS011;52016;51.228;-2.322;2022-12-07T15:59:53;10.68;;;4.47;;
65405;SDS011;52016;51.228;-2.322;2022-12-07T16:03:35;8.45;;;4.63;;
65405;SDS011;52016;51.228;-2.322;2022-12-07T16:07:17;16.80;;;5.40;;
65405;SDS011;52016;51.228;-2.322;2022-12-07T16:10:59;9.80;;;4.70;;
65405;SDS011;52016;51.228;-2.322;2022-12-07T16:14:45;10.52;;;4.95;;
65405;SDS011;52016;51.228;-2.322;2022-12-07T16:18:27;13.98;;;5.03;;
65405;SDS011;52016;51.228;-2.322;2022-12-07T16:22:09;12.02;;;5.07;;
65405;SDS011;52016;51.228;-2.322;2022-12-07T16:25:51;15.95;;;7.35;;
65405;SDS011;52016;51.228;-2.322;2022-12-07T16:29:33;12.82;;;7.30;;
65405;SDS011;52016;51.228;-2.322;2022-12-07T16:33:15;12.85;;;6.47;;
65405;SDS011;52016;51.228;-2.322;2022-12-07T16:36:57;14.40;;;7.38;;
65405;SDS011;52016;51.228;-2.322;2022-12-07T16:40:44;11.93;;;8.03;;
65405;SDS011;52016;51.228;-2.322;2022-12-07T16:44:28;13.10;;;6.50;;
65405;SDS011;52016;51.228;-2.322;2022-12-07T16:48:11;9.32;;;5.82;;
65405;SDS011;52016;51.228;-2.322;2022-12-07T16:51:54;11.43;;;6.85;;
65405;SDS011;52016;51.228;-2.322;2022-12-07T16:55:56;13.90;;;6.97;;
65405;SDS011;52016;51.228;-2.322;2022-12-07T16:59:38;15.93;;;8.82;;
65405;SDS011;52016;51.228;-2.322;2022-12-07T17:03:20;16.08;;;7.35;;
65405;SDS011;52016;51.228;-2.322;2022-12-07T17:07:02;14.23;;;7.50;;
65405;SDS011;52016;51.228;-2.322;2022-12-07T17:10:44;16.42;;;9.32;;
65405;SDS011;52016;51.228;-2.322;2022-12-07T17:14:26;10.18;;;6.13;;
65405;SDS011;52016;51.228;-2.322;2022-12-07T17:18:28;11.15;;;5.43;;
65405;SDS011;52016;51.228;-2.322;2022-12-07T17:22:12;16.13;;;5.47;;
65405;SDS011;52016;51.228;-2.322;2022-12-07T17:25:54;50.85;;;31.83;;
65405;SDS011;52016;51.228;-2.322;2022-12-07T17:29:36;99.35;;;62.85;;
65405;SDS011;52016;51.228;-2.322;2022-12-07T17:33:18;90.20;;;44.28;;
65405;SDS011;52016;51.228;-2.322;2022-12-07T17:37:01;92.90;;;40.67;;
65405;SDS011;52016;51.228;-2.322;2022-12-07T17:40:43;133.00;;;54.72;;
65405;SDS011;52016;51.228;-2.322;2022-12-07T17:44:26;107.65;;;43.97;;
65405;SDS011;52016;51.228;-2.322;2022-12-07T17:48:08;110.82;;;44.13;;
65405;SDS011;52016;51.228;-2.322;2022-12-07T17:51:50;68.22;;;27.48;;
65405;SDS011;52016;51.228;-2.322;2022-12-07T17:55:54;69.63;;;31.52;;
65405;SDS011;52016;51.228;-2.322;2022-12-07T17:59:57;51.72;;;23.65;;
65405;SDS011;52016;51.228;-2.322;2022-12-07T18:03:39;30.80;;;17.80;;
65405;SDS011;52016;51.228;-2.322;2022-12-07T18:07:21;23.90;;;13.25;;
65405;SDS011;52016;51.228;-2.322;2022-12-07T18:11:04;20.90;;;11.43;;
65405;SDS011;52016;51.228;-2.322;2022-12-07T18:14:47;22.83;;;12.32;;
65405;SDS011;52016;51.228;-2.322;2022-12-07T18:18:31;25.30;;;14.00;;
65405;SDS011;52016;51.228;-2.322;2022-12-07T18:22:13;23.17;;;13.70;;
65405;SDS011;52016;51.228;-2.322;2022-12-07T18:25:55;29.73;;;16.17;;
65405;SDS011;52016;51.228;-2.322;2022-12-07T18:29:37;29.05;;;16.05;;
65405;SDS011;52016;51.228;-2.322;2022-12-07T18:33:19;26.17;;;13.90;;
65405;SDS011;52016;51.228;-2.322;2022-12-07T18:37:03;24.10;;;12.30;;
65405;SDS011;52016;51.228;-2.322;2022-12-07T18:40:45;24.55;;;12.73;;
65405;SDS011;52016;51.228;-2.322;2022-12-07T18:44:28;22.50;;;13.82;;
65405;SDS011;52016;51.228;-2.322;2022-12-07T18:48:10;23.05;;;14.07;;
65405;SDS011;52016;51.228;-2.322;2022-12-07T18:51:52;25.15;;;14.68;;
65405;SDS011;52016;51.228;-2.322;2022-12-07T18:55:34;39.30;;;21.40;;
65405;SDS011;52016;51.228;-2.322;2022-12-07T18:59:16;57.72;;;30.77;;
65405;SDS011;52016;51.228;-2.322;2022-12-07T19:03:17;58.47;;;30.48;;
65405;SDS011;52016;51.228;-2.322;2022-12-07T19:06:59;32.70;;;18.42;;
65405;SDS011;52016;51.228;-2.322;2022-12-07T19:10:41;37.20;;;21.45;;
65405;SDS011;52016;51.228;-2.322;2022-12-07T19:14:27;32.85;;;20.02;;
65405;SDS011;52016;51.228;-2.322;2022-12-07T19:18:14;40.42;;;25.90;;
65405;SDS011;52016;51.228;-2.322;2022-12-07T19:21:56;40.70;;;23.25;;
65405;SDS011;52016;51.228;-2.322;2022-12-07T19:25:38;26.58;;;14.98;;
65405;SDS011;52016;51.228;-2.322;2022-12-07T19:29:20;20.23;;;13.40;;
65405;SDS011;52016;51.228;-2.322;2022-12-07T19:33:02;21.77;;;13.35;;
65405;SDS011;52016;51.228;-2.322;2022-12-07T19:36:45;36.00;;;21.33;;
65405;SDS011;52016;51.228;-2.322;2022-12-07T19:40:27;32.55;;;18.00;;
65405;SDS011;52016;51.228;-2.322;2022-12-07T19:44:10;28.55;;;16.80;;
65405;SDS011;52016;51.228;-2.322;2022-12-07T19:47:54;29.23;;;17.27;;
65405;SDS011;52016;51.228;-2.322;2022-12-07T19:51:36;35.38;;;19.27;;
65405;SDS011;52016;51.228;-2.322;2022-12-07T19:55:18;25.60;;;14.20;;
65405;SDS011;52016;51.228;-2.322;2022-12-07T19:59:00;22.75;;;13.82;;
65405;SDS011;52016;51.228;-2.322;2022-12-07T20:02:42;28.27;;;15.13;;
65405;SDS011;52016;51.228;-2.322;2022-12-07T20:06:25;34.55;;;22.88;;
65405;SDS011;52016;51.228;-2.322;2022-12-07T20:10:07;42.60;;;26.75;;
65405;SDS011;52016;51.228;-2.322;2022-12-07T20:13:50;28.98;;;18.02;;
65405;SDS011;52016;51.228;-2.322;2022-12-07T20:17:33;29.05;;;16.77;;
65405;SDS011;52016;51.228;-2.322;2022-12-07T20:21:15;25.20;;;13.13;;
65405;SDS011;52016;51.228;-2.322;2022-12-07T20:24:56;25.17;;;12.43;;
65405;SDS011;52016;51.228;-2.322;2022-12-07T20:28:39;36.58;;;24.83;;
65405;SDS011;52016;51.228;-2.322;2022-12-07T20:32:26;26.25;;;13.57;;
65405;SDS011;52016;51.228;-2.322;2022-12-07T20:36:08;17.17;;;10.68;;
65405;SDS011;52016;51.228;-2.322;2022-12-07T20:39:50;33.95;;;15.82;;
65405;SDS011;52016;51.228;-2.322;2022-12-07T20:43:33;30.05;;;16.88;;
65405;SDS011;52016;51.228;-2.322;2022-12-07T20:47:15;72.25;;;38.25;;
65405;SDS011;52016;51.228;-2.322;2022-12-07T20:51:03;41.83;;;23.60;;
65405;SDS011;52016;51.228;-2.322;2022-12-07T20:54:46;37.63;;;22.58;;
65405;SDS011;52016;51.228;-2.322;2022-12-07T20:58:28;54.47;;;29.30;;
65405;SDS011;52016;51.228;-2.322;2022-12-07T21:02:10;37.03;;;20.98;;
65405;SDS011;52016;51.228;-2.322;2022-12-07T21:05:54;39.45;;;21.55;;
65405;SDS011;52016;51.228;-2.322;2022-12-07T21:09:36;33.72;;;17.90;;
65405;SDS011;52016;51.228;-2.322;2022-12-07T21:13:18;27.98;;;16.80;;
65405;SDS011;52016;51.228;-2.322;2022-12-07T21:17:00;23.98;;;15.10;;
65405;SDS011;52016;51.228;-2.322;2022-12-07T21:20:42;21.58;;;13.57;;
65405;SDS011;52016;51.228;-2.322;2022-12-07T21:24:24;29.45;;;15.30;;
65405;SDS011;52016;51.228;-2.322;2022-12-07T21:28:06;22.33;;;12.77;;
65405;SDS011;52016;51.228;-2.322;2022-12-07T21:31:48;20.50;;;12.25;;
65405;SDS011;52016;51.228;-2.322;2022-12-07T21:35:30;22.55;;;12.93;;
65405;SDS011;52016;51.228;-2.322;2022-12-07T21:39:12;26.08;;;12.60;;
65405;SDS011;52016;51.228;-2.322;2022-12-07T21:42:54;16.95;;;11.20;;
65405;SDS011;52016;51.228;-2.322;2022-12-07T21:46:36;17.52;;;10.10;;
65405;SDS011;52016;51.228;-2.322;2022-12-07T21:50:19;17.95;;;10.70;;
65405;SDS011;52016;51.228;-2.322;2022-12-07T21:54:02;19.15;;;11.13;;
65405;SDS011;52016;51.228;-2.322;2022-12-07T21:57:45;22.50;;;11.75;;
65405;SDS011;52016;51.228;-2.322;2022-12-07T22:01:28;14.25;;;8.88;;
65405;SDS011;52016;51.228;-2.322;2022-12-07T22:05:14;17.10;;;9.10;;
65405;SDS011;52016;51.228;-2.322;2022-12-07T22:08:56;19.20;;;10.45;;
65405;SDS011;52016;51.228;-2.322;2022-12-07T22:12:38;18.70;;;11.23;;
65405;SDS011;52016;51.228;-2.322;2022-12-07T22:16:20;17.02;;;9.05;;
65405;SDS011;52016;51.228;-2.322;2022-12-07T22:20:03;17.48;;;9.50;;
65405;SDS011;52016;51.228;-2.322;2022-12-07T22:23:45;18.70;;;9.43;;
65405;SDS011;52016;51.228;-2.322;2022-12-07T22:27:27;18.98;;;8.82;;
65405;SDS011;52016;51.228;-2.322;2022-12-07T22:31:11;16.02;;;7.97;;
65405;SDS011;52016;51.228;-2.322;2022-12-07T22:34:55;16.90;;;8.52;;
65405;SDS011;52016;51.228;-2.322;2022-12-07T22:38:37;16.27;;;8.00;;
65405;SDS011;52016;51.228;-2.322;2022-12-07T22:42:20;10.88;;;7.05;;
65405;SDS011;52016;51.228;-2.322;2022-12-07T22:46:02;15.95;;;8.82;;
65405;SDS011;52016;51.228;-2.322;2022-12-07T22:49:45;18.10;;;8.88;;
65405;SDS011;52016;51.228;-2.322;2022-12-07T22:53:27;13.98;;;8.18;;
65405;SDS011;52016;51.228;-2.322;2022-12-07T22:57:09;12.23;;;8.38;;
65405;SDS011;52016;51.228;-2.322;2022-12-07T23:00:51;13.40;;;8.60;;
65405;SDS011;52016;51.228;-2.322;2022-12-07T23:04:34;19.90;;;8.68;;
65405;SDS011;52016;51.228;-2.322;2022-12-07T23:08:16;15.65;;;8.20;;
65405;SDS011;52016;51.228;-2.322;2022-12-07T23:11:58;17.20;;;7.65;;
65405;SDS011;52016;51.228;-2.322;2022-12-07T23:15:59;16.15;;;6.90;;
65405;SDS011;52016;51.228;-2.322;2022-12-07T23:19:52;14.15;;;7.65;;
65405;SDS011;52016;51.228;-2.322;2022-12-07T23:23:36;11.30;;;6.40;;
65405;SDS011;52016;51.228;-2.322;2022-12-07T23:27:18;10.27;;;6.30;;
65405;SDS011;52016;51.228;-2.322;2022-12-07T23:31:01;14.32;;;6.50;;
65405;SDS011;52016;51.228;-2.322;2022-12-07T23:38:30;16.38;;;7.57;;
65405;SDS011;52016;51.228;-2.322;2022-12-07T23:42:12;12.35;;;6.85;;
65405;SDS011;52016;51.228;-2.322;2022-12-07T23:45:54;12.73;;;7.68;;
65405;SDS011;52016;51.228;-2.322;2022-12-07T23:49:36;16.15;;;7.68;;
65405;SDS011;52016;51.228;-2.322;2022-12-07T23:53:18;12.93;;;8.07;;
65405;SDS011;52016;51.228;-2.322;2022-12-07T23:57:00;13.02;;;7.88;;
